Time;durP1;ratioP1;P1;durP2;ratioP2;P2;SDS_P1;SDS_P2;PMS_P1;PMS_P2;Temp;Humidity;BMP_temperature;BMP_pressure;BME280_temperature;BME280_humidity;BME280_pressure;Samples;Min_cycle;Max_cycle;Signal;HPM_P1;HPM_P2
2021/12/01 00:01:21;;;;;;;3.98;1.25;;;10.60;85.60;;;;;;1893981;76;21034;-42
2021/12/01 00:03:50;;;;;;;4.22;1.05;;;10.70;84.80;;;;;;1893970;76;21030;-42
2021/12/01 00:06:20;;;;;;;5.12;1.20;;;10.70;84.90;;;;;;1893977;76;21038;-42
2021/12/01 00:08:49;;;;;;;4.35;1.30;;;10.80;84.40;;;;;;1893965;75;21034;-43
2021/12/01 00:11:19;;;;;;;2.77;1.22;;;10.80;84.60;;;;;;1893823;76;21041;-42
2021/12/01 00:13:48;;;;;;;1.95;0.90;;;10.80;84.80;;;;;;1893934;76;21124;-42
2021/12/01 00:16:18;;;;;;;4.72;2.12;;;10.70;84.80;;;;;;1893887;76;21030;-42
2021/12/01 00:18:47;;;;;;;3.80;1.82;;;10.60;84.50;;;;;;1893882;76;21030;-42
2021/12/01 00:21:16;;;;;;;5.83;2.77;;;10.50;84.80;;;;;;1893856;75;21006;-42
2021/12/01 00:23:46;;;;;;;5.33;2.37;;;10.40;85.30;;;;;;1893908;76;21026;-42
2021/12/01 00:26:15;;;;;;;4.45;2.20;;;10.30;85.50;;;;;;1893836;76;21030;-43
2021/12/01 00:28:45;;;;;;;7.78;2.83;;;10.20;85.80;;;;;;1893982;76;21164;-42
2021/12/01 00:31:15;;;;;;;5.33;3.35;;;10.00;84.90;;;;;;1893809;76;21002;-42
2021/12/01 00:33:44;;;;;;;5.42;2.20;;;9.80;83.40;;;;;;1893957;76;21026;-44
2021/12/01 00:36:14;;;;;;;2.77;2.35;;;9.40;81.40;;;;;;1893973;76;21077;-42
2021/12/01 00:38:44;;;;;;;3.35;2.33;;;8.80;81.30;;;;;;1894030;76;21096;-42
2021/12/01 00:41:14;;;;;;;5.08;2.17;;;8.40;83.40;;;;;;1894145;76;21042;-42
2021/12/01 00:43:44;;;;;;;2.77;1.75;;;8.10;82.60;;;;;;1894140;76;21022;-43
2021/12/01 00:46:18;;;;;;;5.10;2.12;;;7.80;83.20;;;;;;1893923;75;21141;-43
2021/12/01 00:48:44;;;;;;;2.12;1.77;;;7.50;83.20;;;;;;1893525;75;21046;-43
2021/12/01 00:51:13;;;;;;;3.20;1.50;;;7.30;83.80;;;;;;1893961;74;21014;-44
2021/12/01 00:53:43;;;;;;;3.50;1.37;;;7.10;83.80;;;;;;1894013;76;21022;-43
2021/12/01 00:56:12;;;;;;;3.27;1.70;;;7.00;83.10;;;;;;1894004;76;21093;-42
2021/12/01 00:58:41;;;;;;;2.72;1.10;;;6.80;82.60;;;;;;1893976;74;21026;-44
2021/12/01 01:01:11;;;;;;;1.80;0.75;;;6.70;81.60;;;;;;1894140;76;21026;-44
2021/12/01 01:03:41;;;;;;;0.88;0.70;;;6.60;82.70;;;;;;1893976;76;21022;-45
2021/12/01 01:06:10;;;;;;;1.62;0.68;;;6.50;82.40;;;;;;1893949;74;21026;-43
2021/12/01 01:08:42;;;;;;;1.77;0.72;;;6.40;82.90;;;;;;1894105;74;21034;-43
2021/12/01 01:16:22;;;;;;;0.60;0.60;;;6.20;83.20;;;;;;1894071;74;20998;-43
2021/12/01 01:16:28;;;;;;;1.40;0.80;;;6.10;84.40;;;;;;1894101;74;21312;-43
2021/12/01 01:19:03;;;;;;;1.92;0.80;;;6.00;84.00;;;;;;1894105;76;21046;-44
2021/12/01 01:21:35;;;;;;;1.40;0.90;;;6.00;83.50;;;;;;1894074;75;21479;-46
2021/12/01 01:24:06;;;;;;;4.03;0.90;;;6.00;84.30;;;;;;1894101;76;21015;-44
2021/12/01 01:26:36;;;;;;;2.02;1.12;;;5.90;84.60;;;;;;1893984;76;21092;-45
2021/12/01 01:29:06;;;;;;;1.22;1.02;;;5.80;84.90;;;;;;1894081;76;21112;-43
2021/12/01 01:31:37;;;;;;;2.30;1.20;;;5.80;85.10;;;;;;1893969;75;21038;-44
2021/12/01 01:34:06;;;;;;;1.98;1.00;;;5.80;83.80;;;;;;1894012;75;21100;-45
2021/12/01 01:36:36;;;;;;;1.15;1.05;;;5.80;84.30;;;;;;1894070;76;21096;-43
2021/12/01 01:39:05;;;;;;;2.27;1.55;;;5.80;84.90;;;;;;1894156;76;21026;-43
2021/12/01 01:41:35;;;;;;;2.10;1.00;;;5.70;85.70;;;;;;1894119;76;21068;-43
2021/12/01 01:44:05;;;;;;;2.40;1.22;;;5.70;84.30;;;;;;1894035;76;21006;-43
2021/12/01 01:46:36;;;;;;;0.82;0.82;;;5.70;84.90;;;;;;1893959;74;21078;-43
2021/12/01 01:49:16;;;;;;;0.70;0.70;;;5.70;84.50;;;;;;1893948;76;21042;-43
2021/12/01 01:51:41;;;;;;;0.90;0.90;;;5.70;84.50;;;;;;1893514;75;21104;-45
2021/12/01 01:54:12;;;;;;;2.50;1.50;;;5.70;84.20;;;;;;1893986;76;21050;-43
2021/12/01 01:56:42;;;;;;;1.17;0.80;;;5.70;84.40;;;;;;1893967;76;21006;-44
2021/12/01 01:59:12;;;;;;;1.15;1.05;;;5.70;84.10;;;;;;1894039;75;21103;-43
2021/12/01 02:01:45;;;;;;;4.37;1.00;;;5.70;84.20;;;;;;1893945;76;21030;-43
2021/12/01 02:04:17;;;;;;;1.80;1.20;;;5.70;84.30;;;;;;1894038;76;21049;-44
2021/12/01 02:06:48;;;;;;;1.02;0.78;;;5.60;84.00;;;;;;1893977;76;21033;-44
2021/12/01 02:09:22;;;;;;;1.42;1.10;;;5.60;84.40;;;;;;1894020;76;21022;-43
2021/12/01 02:11:57;;;;;;;1.10;0.90;;;5.70;84.50;;;;;;1894196;76;21023;-43
2021/12/01 02:14:27;;;;;;;3.05;0.80;;;5.70;84.90;;;;;;1894213;76;21022;-43
2021/12/01 02:16:58;;;;;;;1.12;1.02;;;5.70;84.50;;;;;;1894068;75;21022;-43
2021/12/01 02:19:28;;;;;;;1.60;1.12;;;5.80;85.00;;;;;;1894079;76;21026;-43
2021/12/01 02:21:58;;;;;;;3.12;1.62;;;5.80;84.50;;;;;;1893993;74;21026;-42
2021/12/01 02:24:27;;;;;;;1.15;0.82;;;5.80;84.20;;;;;;1894012;75;21100;-44
2021/12/01 02:26:56;;;;;;;1.62;1.02;;;5.80;83.60;;;;;;1894017;76;21026;-42
2021/12/01 02:29:27;;;;;;;1.67;1.20;;;5.90;83.40;;;;;;1894161;76;21456;-43
2021/12/01 02:31:57;;;;;;;2.27;1.85;;;5.80;82.90;;;;;;1894028;76;21026;-44
2021/12/01 02:34:26;;;;;;;1.02;1.00;;;5.80;83.60;;;;;;1894139;76;21014;-44
2021/12/01 02:36:58;;;;;;;2.25;1.60;;;5.90;83.60;;;;;;1894064;74;21179;-43
2021/12/01 02:39:29;;;;;;;2.22;1.55;;;5.90;84.30;;;;;;1894068;76;21080;-43
2021/12/01 02:42:00;;;;;;;4.20;1.22;;;5.90;83.50;;;;;;1893949;76;21091;-44
2021/12/01 02:44:30;;;;;;;2.08;1.40;;;5.90;83.20;;;;;;1893937;75;21038;-43
2021/12/01 02:47:01;;;;;;;1.52;1.12;;;5.90;83.20;;;;;;1893849;76;21034;-42
2021/12/01 02:49:30;;;;;;;1.57;1.20;;;5.90;83.70;;;;;;1884589;76;21112;-43
2021/12/01 02:51:59;;;;;;;2.55;1.50;;;5.90;83.70;;;;;;1884643;76;21030;-44
2021/12/01 02:54:29;;;;;;;1.20;1.10;;;5.90;84.30;;;;;;1884755;76;21030;-42
2021/12/01 02:56:59;;;;;;;3.27;1.80;;;6.00;84.20;;;;;;1884604;75;21007;-43
2021/12/01 02:59:28;;;;;;;4.58;1.30;;;6.00;84.40;;;;;;1884538;76;21030;-44
2021/12/01 03:01:58;;;;;;;3.27;1.30;;;6.00;84.60;;;;;;1884622;76;21030;-43
2021/12/01 03:04:28;;;;;;;2.25;1.40;;;6.00;83.90;;;;;;1884671;76;21026;-43
2021/12/01 03:06:58;;;;;;;1.32;1.02;;;6.00;83.80;;;;;;1884600;75;21058;-44
2021/12/01 03:09:28;;;;;;;1.65;1.07;;;6.00;84.00;;;;;;1884706;75;21050;-44
2021/12/01 03:11:57;;;;;;;1.27;0.90;;;6.00;84.50;;;;;;1884579;76;21105;-42
2021/12/01 03:14:27;;;;;;;0.80;0.80;;;5.90;84.40;;;;;;1884725;76;21026;-43
2021/12/01 03:16:56;;;;;;;1.65;1.45;;;5.90;84.40;;;;;;1884647;76;21027;-43
2021/12/01 03:19:25;;;;;;;1.65;1.55;;;5.80;84.90;;;;;;1884756;75;21022;-43
2021/12/01 03:21:55;;;;;;;2.92;1.85;;;5.80;84.80;;;;;;1884606;75;21030;-43
2021/12/01 03:24:24;;;;;;;3.67;1.60;;;5.80;84.60;;;;;;1884741;76;21003;-43
2021/12/01 03:26:54;;;;;;;3.37;1.75;;;5.80;84.40;;;;;;1884725;75;21093;-43
2021/12/01 03:29:23;;;;;;;5.80;3.58;;;5.80;84.30;;;;;;1884590;76;21030;-43
2021/12/01 03:31:52;;;;;;;3.22;2.40;;;5.80;84.00;;;;;;1884600;76;21030;-43
2021/12/01 03:34:23;;;;;;;4.60;3.33;;;5.90;83.90;;;;;;1884700;75;21117;-44
2021/12/01 03:36:53;;;;;;;5.03;4.10;;;5.80;83.80;;;;;;1884578;76;21100;-44
2021/12/01 03:39:23;;;;;;;6.53;4.03;;;5.80;83.80;;;;;;1884707;75;21028;-43
2021/12/01 03:41:53;;;;;;;5.70;3.95;;;5.80;84.40;;;;;;1884670;75;21039;-43
2021/12/01 03:44:23;;;;;;;7.17;4.17;;;5.90;84.60;;;;;;1884605;76;21039;-44
2021/12/01 03:46:52;;;;;;;3.20;2.87;;;6.00;84.60;;;;;;1884684;76;21018;-44
2021/12/01 03:49:22;;;;;;;11.12;6.30;;;6.00;83.40;;;;;;1891610;76;21140;-42
2021/12/01 03:51:51;;;;;;;8.75;4.03;;;6.00;83.30;;;;;;1893987;74;21132;-43
2021/12/01 03:54:20;;;;;;;5.10;3.17;;;6.00;82.70;;;;;;1894058;76;21105;-43
2021/12/01 03:56:49;;;;;;;5.60;3.33;;;6.00;81.80;;;;;;1893891;75;21089;-44
2021/12/01 03:59:19;;;;;;;7.50;4.47;;;6.00;80.60;;;;;;1893888;76;21100;-45
2021/12/01 04:01:48;;;;;;;6.25;4.35;;;6.00;79.30;;;;;;1893866;76;21100;-43
2021/12/01 04:04:18;;;;;;;4.80;4.00;;;6.10;78.40;;;;;;1893853;76;21030;-43
2021/12/01 04:06:47;;;;;;;6.37;4.47;;;6.10;77.60;;;;;;1893833;76;21083;-43
2021/12/01 04:09:17;;;;;;;6.60;4.05;;;6.10;77.50;;;;;;1893842;76;21026;-43
2021/12/01 04:11:46;;;;;;;6.50;3.87;;;6.10;77.20;;;;;;1893986;76;21104;-43
2021/12/01 04:14:16;;;;;;;4.28;3.37;;;6.10;76.20;;;;;;1894003;76;21050;-43
2021/12/01 04:16:45;;;;;;;7.78;5.10;;;6.10;76.50;;;;;;1894098;76;21096;-42
2021/12/01 04:19:15;;;;;;;6.83;5.33;;;6.10;77.80;;;;;;1894128;74;21046;-43
2021/12/01 04:21:45;;;;;;;8.35;5.28;;;6.10;78.80;;;;;;1893969;76;21026;-43
2021/12/01 04:24:14;;;;;;;18.40;9.85;;;6.10;79.80;;;;;;1894060;76;21027;-43
2021/12/01 04:26:43;;;;;;;10.00;6.03;;;6.10;79.40;;;;;;1893974;76;21126;-42
2021/12/01 04:29:13;;;;;;;16.62;7.67;;;6.20;79.00;;;;;;1893986;74;21105;-43
2021/12/01 04:31:43;;;;;;;22.70;9.95;;;6.20;79.40;;;;;;1893905;76;21030;-43
2021/12/01 04:34:12;;;;;;;26.55;12.85;;;6.20;80.00;;;;;;1894063;76;21038;-43
2021/12/01 04:36:43;;;;;;;17.62;9.88;;;6.20;80.10;;;;;;1893921;76;21046;-44
2021/12/01 04:39:15;;;;;;;10.68;5.80;;;6.30;80.50;;;;;;1894126;76;21078;-43
2021/12/01 04:41:56;;;;;;;4.72;4.10;;;6.30;80.70;;;;;;1893999;74;21002;-43
2021/12/01 04:44:24;;;;;;;12.10;7.42;;;6.30;80.20;;;;;;1892848;75;21038;-43
2021/12/01 04:46:56;;;;;;;8.58;6.05;;;6.40;80.80;;;;;;1893926;76;21108;-43
2021/12/01 04:49:25;;;;;;;9.93;5.28;;;6.40;80.90;;;;;;1893971;74;21574;-43
2021/12/01 04:51:57;;;;;;;8.58;5.17;;;6.50;81.00;;;;;;1893950;76;21030;-43
2021/12/01 04:54:27;;;;;;;4.22;2.87;;;6.50;81.10;;;;;;1893947;75;21554;-43
2021/12/01 04:56:57;;;;;;;8.23;5.92;;;6.60;75.70;;;;;;1893926;76;21026;-42
2021/12/01 04:59:27;;;;;;;7.60;5.83;;;6.60;79.60;;;;;;1893933;74;21092;-42
2021/12/01 05:01:56;;;;;;;7.37;4.78;;;6.60;79.40;;;;;;1894057;76;21105;-42
2021/12/01 05:04:26;;;;;;;16.75;8.83;;;6.60;80.00;;;;;;1894108;75;21101;-43
2021/12/01 05:06:55;;;;;;;7.22;4.80;;;6.70;81.00;;;;;;1893893;76;21101;-42
2021/12/01 05:09:25;;;;;;;7.25;4.95;;;6.70;81.10;;;;;;1894029;74;21026;-43
2021/12/01 05:11:54;;;;;;;8.50;4.75;;;6.80;81.10;;;;;;1893966;76;21034;-42
2021/12/01 05:14:25;;;;;;;5.95;3.85;;;6.90;81.50;;;;;;1893949;76;21092;-43
2021/12/01 05:16:54;;;;;;;6.15;3.37;;;7.00;81.70;;;;;;1893961;76;21080;-42
2021/12/01 05:19:23;;;;;;;5.80;4.03;;;7.00;78.30;;;;;;1894069;76;21481;-43
2021/12/01 05:21:53;;;;;;;5.47;4.78;;;7.00;78.10;;;;;;1894003;76;21026;-44
2021/12/01 05:24:22;;;;;;;6.92;4.10;;;6.90;77.80;;;;;;1894034;76;21112;-43
2021/12/01 05:26:52;;;;;;;5.97;3.37;;;6.80;77.80;;;;;;1893913;76;21002;-42
2021/12/01 05:29:23;;;;;;;7.20;4.47;;;6.70;77.30;;;;;;1893868;76;21077;-43
2021/12/01 05:31:53;;;;;;;13.90;8.73;;;6.70;79.30;;;;;;1893792;75;21226;-43
2021/12/01 05:34:22;;;;;;;10.13;6.55;;;6.90;81.30;;;;;;1894013;75;21030;-42
2021/12/01 05:36:54;;;;;;;13.85;8.08;;;7.10;81.10;;;;;;1893997;74;21006;-42
2021/12/01 05:39:24;;;;;;;8.63;5.45;;;7.40;80.20;;;;;;1894001;76;21444;-43
2021/12/01 05:41:53;;;;;;;13.25;7.83;;;7.40;80.60;;;;;;1893999;76;21030;-42
2021/12/01 05:44:22;;;;;;;7.75;4.58;;;7.60;79.60;;;;;;1894110;75;21089;-42
2021/12/01 05:46:52;;;;;;;8.45;4.80;;;7.70;80.30;;;;;;1894117;76;21038;-43
2021/12/01 05:49:22;;;;;;;9.03;5.78;;;7.80;79.80;;;;;;1893862;74;21062;-42
2021/12/01 05:51:51;;;;;;;11.45;6.05;;;7.90;80.10;;;;;;1893866;76;21166;-42
2021/12/01 05:54:20;;;;;;;7.00;4.78;;;7.90;80.40;;;;;;1893902;76;21112;-42
2021/12/01 05:56:50;;;;;;;8.35;4.12;;;7.90;79.40;;;;;;1893833;76;21022;-44
2021/12/01 05:59:19;;;;;;;17.80;8.60;;;7.80;78.30;;;;;;1893970;75;21084;-42
2021/12/01 06:01:48;;;;;;;13.70;6.12;;;7.80;80.20;;;;;;1893939;74;21018;-42
2021/12/01 06:04:18;;;;;;;10.20;5.00;;;7.90;83.10;;;;;;1893863;76;21112;-41
2021/12/01 06:06:47;;;;;;;10.68;5.45;;;8.20;83.40;;;;;;1893822;76;21022;-42
2021/12/01 06:09:16;;;;;;;11.00;6.47;;;8.50;82.60;;;;;;1893862;76;21069;-42
2021/12/01 06:11:47;;;;;;;8.15;4.83;;;8.60;81.70;;;;;;1893859;76;21026;-42
2021/12/01 06:14:17;;;;;;;5.65;4.17;;;8.70;81.20;;;;;;1894012;76;20994;-42
2021/12/01 06:16:46;;;;;;;9.28;5.33;;;8.70;81.10;;;;;;1894026;76;21014;-43
2021/12/01 06:19:16;;;;;;;6.05;4.33;;;8.70;81.00;;;;;;1893940;75;21089;-41
2021/12/01 06:21:45;;;;;;;8.33;4.70;;;8.70;81.00;;;;;;1893848;75;21133;-41
2021/12/01 06:24:15;;;;;;;14.70;4.60;;;8.70;80.90;;;;;;1893987;75;21154;-41
2021/12/01 06:26:44;;;;;;;11.95;5.80;;;8.80;81.30;;;;;;1893872;75;21026;-42
2021/12/01 06:29:14;;;;;;;9.40;6.00;;;8.90;81.10;;;;;;1893836;76;20998;-41
2021/12/01 06:31:43;;;;;;;6.97;5.50;;;8.90;81.20;;;;;;1893991;75;21027;-41
2021/12/01 06:34:13;;;;;;;9.43;5.47;;;8.90;81.40;;;;;;1893821;75;21077;-42
2021/12/01 06:36:42;;;;;;;10.95;5.80;;;9.00;81.30;;;;;;1893995;75;21030;-42
2021/12/01 06:39:12;;;;;;;7.42;5.35;;;9.00;81.40;;;;;;1894007;76;21148;-42
2021/12/01 06:41:41;;;;;;;19.45;13.65;;;9.10;81.30;;;;;;1893891;75;21142;-42
2021/12/01 06:44:11;;;;;;;21.07;12.23;;;9.10;81.20;;;;;;1893886;75;21026;-41
2021/12/01 06:46:40;;;;;;;32.05;21.48;;;9.20;81.00;;;;;;1893912;76;21092;-41
2021/12/01 06:49:09;;;;;;;28.15;18.37;;;9.10;80.70;;;;;;1893957;74;21029;-42
2021/12/01 06:51:39;;;;;;;66.37;42.27;;;9.20;81.00;;;;;;1874480;75;21047;-42
2021/12/01 06:54:08;;;;;;;31.87;19.55;;;9.20;80.80;;;;;;1872544;77;20999;-42
2021/12/01 06:56:38;;;;;;;24.50;15.95;;;9.20;81.50;;;;;;1872361;76;21544;-42
2021/12/01 06:59:07;;;;;;;34.60;22.55;;;9.30;81.30;;;;;;1872469;75;21007;-41
2021/12/01 07:01:37;;;;;;;26.37;18.62;;;9.40;80.80;;;;;;1872373;76;21445;-42
2021/12/01 07:04:06;;;;;;;23.05;15.90;;;9.40;81.30;;;;;;1872436;77;21035;-42
2021/12/01 07:06:35;;;;;;;21.68;11.57;;;9.60;81.20;;;;;;1872312;77;21031;-43
2021/12/01 07:09:05;;;;;;;24.27;14.43;;;9.60;80.50;;;;;;1872308;77;21097;-42
2021/12/01 07:11:34;;;;;;;15.45;9.78;;;9.50;79.20;;;;;;1872391;77;21156;-42
2021/12/01 07:14:04;;;;;;;19.57;14.38;;;9.40;79.40;;;;;;1872338;76;21023;-42
2021/12/01 07:16:34;;;;;;;19.87;12.40;;;9.40;79.30;;;;;;1872451;77;21101;-43
2021/12/01 07:19:03;;;;;;;22.22;16.67;;;9.40;79.30;;;;;;1872531;77;21047;-41
2021/12/01 07:21:35;;;;;;;23.35;18.98;;;9.30;79.10;;;;;;1872376;77;21019;-41
2021/12/01 07:24:06;;;;;;;22.85;17.40;;;9.30;78.90;;;;;;1872207;77;21027;-42
2021/12/01 07:26:35;;;;;;;34.92;27.95;;;9.30;78.60;;;;;;1872230;77;21088;-41
2021/12/01 07:29:05;;;;;;;26.82;22.15;;;9.30;78.60;;;;;;1872259;77;21055;-41
2021/12/01 07:31:35;;;;;;;27.82;24.92;;;9.30;78.60;;;;;;1872372;77;21020;-42
2021/12/01 07:34:04;;;;;;;38.08;29.90;;;9.30;78.70;;;;;;1872262;77;21109;-42
2021/12/01 07:38:56;;;;;;;16.77;11.08;;;9.40;78.20;;;;;;1957094;72;26412;-41
2021/12/01 07:41:26;;;;;;;31.07;27.20;;;9.50;77.20;;;;;;1917685;75;21163;-42
2021/12/01 07:43:56;;;;;;;23.75;16.20;;;9.40;78.30;;;;;;1917688;74;21023;-43
2021/12/01 07:46:25;;;;;;;19.30;16.48;;;9.50;77.00;;;;;;1917362;74;20999;-41
2021/12/01 07:48:55;;;;;;;24.52;19.12;;;9.60;77.50;;;;;;1917591;74;21092;-43
2021/12/01 07:51:24;;;;;;;20.43;17.75;;;9.70;77.90;;;;;;1917533;75;21015;-43
2021/12/01 07:53:55;;;;;;;23.18;17.32;;;9.70;77.50;;;;;;1917570;75;21077;-43
2021/12/01 07:56:24;;;;;;;23.07;18.07;;;9.80;76.60;;;;;;1917759;75;21030;-40
2021/12/01 07:58:53;;;;;;;14.58;9.55;;;9.90;74.40;;;;;;1917575;75;21023;-41
2021/12/01 08:01:23;;;;;;;23.10;15.45;;;9.90;74.20;;;;;;1917611;75;21136;-41
2021/12/01 08:03:52;;;;;;;16.10;11.88;;;9.90;73.80;;;;;;1917389;75;21074;-42
2021/12/01 08:06:22;;;;;;;8.93;5.75;;;9.90;73.70;;;;;;1915196;75;21074;-39
2021/12/01 08:08:51;;;;;;;13.13;7.75;;;9.90;72.80;;;;;;1897160;75;21179;-40
2021/12/01 08:11:21;;;;;;;6.85;3.22;;;9.90;69.00;;;;;;1900306;75;21058;-40
2021/12/01 08:13:50;;;;;;;8.65;7.17;;;9.90;69.60;;;;;;1889296;75;21052;-40
2021/12/01 08:16:20;;;;;;;7.28;4.50;;;9.80;69.20;;;;;;1906504;75;21010;-40
2021/12/01 08:18:55;;;;;;;6.65;5.33;;;9.80;67.40;;;;;;1915554;75;21023;-39
2021/12/01 08:21:20;;;;;;;5.60;4.62;;;9.80;68.10;;;;;;1900922;73;21134;-40
2021/12/01 08:23:49;;;;;;;6.20;4.60;;;9.70;67.50;;;;;;1900159;74;21013;-40
2021/12/01 08:26:19;;;;;;;14.18;8.68;;;9.70;66.30;;;;;;1886599;75;21024;-39
2021/12/01 08:28:49;;;;;;;10.30;6.75;;;9.70;66.60;;;;;;1890190;75;21086;-42
2021/12/01 08:31:19;;;;;;;9.58;7.53;;;9.70;66.50;;;;;;1899896;75;21068;-40
2021/12/01 08:33:49;;;;;;;10.88;8.88;;;9.80;68.70;;;;;;1902762;75;21078;-41
2021/12/01 08:36:20;;;;;;;13.25;9.05;;;9.90;69.00;;;;;;1901158;75;21024;-40
2021/12/01 08:38:49;;;;;;;11.20;8.68;;;10.00;68.40;;;;;;1885066;75;21130;-39
2021/12/01 08:41:19;;;;;;;5.28;4.53;;;10.10;68.40;;;;;;1886420;75;21201;-40
2021/12/01 08:43:48;;;;;;;11.97;7.25;;;10.20;68.40;;;;;;1889007;74;21446;-41
2021/12/01 08:46:18;;;;;;;8.85;6.78;;;10.30;67.30;;;;;;1885546;75;21115;-39
2021/12/01 08:48:47;;;;;;;9.83;7.22;;;10.30;68.30;;;;;;1888787;75;21067;-40
2021/12/01 08:51:17;;;;;;;6.03;5.37;;;10.30;68.40;;;;;;1889341;75;21180;-40
2021/12/01 08:53:46;;;;;;;5.97;4.85;;;10.40;69.60;;;;;;1880256;75;21062;-42
2021/12/01 08:56:16;;;;;;;7.78;5.28;;;10.50;66.20;;;;;;1889001;75;21064;-40
2021/12/01 08:58:45;;;;;;;9.23;4.95;;;10.50;66.50;;;;;;1889429;74;21078;-41
2021/12/01 09:01:15;;;;;;;5.78;4.17;;;10.50;66.60;;;;;;1888426;75;21134;-39
2021/12/01 09:03:44;;;;;;;9.33;7.50;;;10.40;66.10;;;;;;1899234;74;21122;-41
2021/12/01 09:06:14;;;;;;;5.25;4.50;;;10.40;66.90;;;;;;1885787;75;21092;-41
2021/12/01 09:08:43;;;;;;;8.40;4.62;;;10.30;64.20;;;;;;1887054;75;21101;-41
2021/12/01 09:11:13;;;;;;;9.88;3.98;;;10.20;64.90;;;;;;1888821;75;21105;-40
2021/12/01 09:13:42;;;;;;;11.43;4.20;;;10.00;64.80;;;;;;1885137;75;21029;-41
2021/12/01 09:16:12;;;;;;;7.78;3.67;;;9.90;65.10;;;;;;1886133;75;20996;-40
2021/12/01 09:18:48;;;;;;;3.33;2.55;;;9.80;65.10;;;;;;1887123;75;21021;-39
2021/12/01 09:21:21;;;;;;;4.85;3.00;;;9.80;66.20;;;;;;1897118;75;21007;-40
2021/12/01 09:23:50;;;;;;;13.75;3.70;;;9.70;65.10;;;;;;1899362;74;21087;-41
2021/12/01 09:26:19;;;;;;;9.53;4.92;;;9.70;65.40;;;;;;1902649;74;21059;-43
2021/12/01 09:28:49;;;;;;;4.50;3.12;;;9.60;65.70;;;;;;1887632;75;21064;-41
2021/12/01 09:31:18;;;;;;;6.22;3.45;;;9.60;66.00;;;;;;1886022;75;21076;-41
2021/12/01 09:33:49;;;;;;;6.22;3.45;;;9.60;64.40;;;;;;1888186;75;21044;-43
2021/12/01 09:36:18;;;;;;;7.65;3.45;;;9.70;65.20;;;;;;1889358;75;21054;-42
2021/12/01 09:38:48;;;;;;;5.40;3.37;;;9.70;65.40;;;;;;1889049;75;21159;-40
2021/12/01 09:41:18;;;;;;;5.95;2.87;;;9.70;63.80;;;;;;1906431;75;21061;-42
2021/12/01 09:43:47;;;;;;;5.95;3.45;;;9.70;63.30;;;;;;1894332;75;21009;-42
2021/12/01 09:46:17;;;;;;;9.63;3.80;;;9.60;64.20;;;;;;1898029;75;21146;-41
2021/12/01 09:48:46;;;;;;;6.47;2.70;;;9.60;64.50;;;;;;1895585;75;21048;-42
2021/12/01 09:51:18;;;;;;;5.40;3.05;;;9.60;64.90;;;;;;1896756;75;21057;-42
2021/12/01 09:53:48;;;;;;;4.30;3.17;;;9.70;65.60;;;;;;1898668;75;21108;-42
2021/12/01 09:56:18;;;;;;;4.20;2.75;;;9.70;66.10;;;;;;1898196;75;21077;-40
2021/12/01 09:58:48;;;;;;;5.92;3.67;;;9.80;65.30;;;;;;1913330;74;21108;-40
2021/12/01 10:01:19;;;;;;;4.70;2.52;;;9.70;65.00;;;;;;1913515;75;21122;-40
2021/12/01 10:03:49;;;;;;;10.93;6.78;;;9.70;64.70;;;;;;1913716;75;21544;-41
2021/12/01 10:06:26;;;;;;;14.60;6.05;;;9.70;64.90;;;;;;1913434;75;21053;-42
2021/12/01 10:08:57;;;;;;;4.50;3.35;;;9.60;66.00;;;;;;1913592;75;21010;-42
2021/12/01 10:11:29;;;;;;;8.88;4.60;;;9.60;64.70;;;;;;1913718;75;21522;-39
2021/12/01 10:14:01;;;;;;;10.65;5.80;;;9.70;66.50;;;;;;1913218;74;21069;-39
2021/12/01 10:16:33;;;;;;;27.22;6.70;;;9.80;65.60;;;;;;1913658;75;20993;-42
2021/12/01 10:19:08;;;;;;;18.85;5.67;;;9.90;66.40;;;;;;1913694;74;21165;-40
2021/12/01 10:21:39;;;;;;;8.63;3.55;;;10.00;66.10;;;;;;1913670;74;21085;-40
2021/12/01 10:24:11;;;;;;;4.42;3.20;;;10.20;65.60;;;;;;1913799;74;21034;-40
2021/12/01 10:26:46;;;;;;;4.05;3.52;;;10.30;65.50;;;;;;1912962;75;22066;-40
2021/12/01 10:29:15;;;;;;;;;;;10.40;65.30;;;;;;1916390;74;21065;-40
2021/12/01 10:31:48;;;;;;;9.33;4.75;;;10.40;63.50;;;;;;1913754;74;20112;-43
2021/12/01 10:34:26;;;;;;;13.13;8.70;;;10.40;64.40;;;;;;1913531;75;21523;-40
2021/12/01 10:37:29;;;;;;;10.65;6.33;;;10.40;65.70;;;;;;1913778;75;20996;-39
2021/12/01 10:40:12;;;;;;;11.18;4.35;;;10.40;66.20;;;;;;1911109;74;21176;-42
2021/12/01 10:43:02;;;;;;;7.45;3.83;;;10.50;66.20;;;;;;1913653;75;21030;-41
2021/12/01 10:45:37;;;;;;;9.08;2.98;;;10.50;66.40;;;;;;1904976;75;21022;-40
2021/12/01 10:48:09;;;;;;;5.60;3.65;;;10.50;65.20;;;;;;1914006;75;21155;-40
2021/12/01 10:50:41;;;;;;;2.52;1.92;;;10.50;65.70;;;;;;1911000;75;21096;-42
2021/12/01 10:53:17;;;;;;;5.80;2.80;;;10.50;63.90;;;;;;1913871;75;21063;-42
2021/12/01 10:55:52;;;;;;;8.80;4.20;;;10.50;65.20;;;;;;1913802;74;21086;-45
2021/12/01 10:58:21;;;;;;;6.65;1.87;;;10.50;65.70;;;;;;1914203;75;21084;-43
2021/12/01 11:00:53;;;;;;;6.55;2.00;;;10.40;63.40;;;;;;1914426;75;21014;-41
2021/12/01 11:03:24;;;;;;;2.37;2.05;;;10.30;63.50;;;;;;1914421;75;21075;-42
2021/12/01 11:05:59;;;;;;;3.65;1.30;;;10.20;63.80;;;;;;1914541;75;21014;-42
2021/12/01 11:08:32;;;;;;;;;;;10.00;63.10;;;;;;1917455;75;21444;-41
2021/12/01 11:11:13;;;;;;;3.72;2.20;;;9.80;63.40;;;;;;1914318;75;20104;-41
2021/12/01 11:13:44;;;;;;;2.92;2.52;;;9.70;64.40;;;;;;1914438;75;21468;-42
2021/12/01 11:16:15;;;;;;;2.47;1.72;;;9.60;64.90;;;;;;1914509;75;20990;-40
2021/12/01 11:18:47;;;;;;;4.05;2.62;;;9.60;65.30;;;;;;1914349;75;21080;-42
2021/12/01 11:21:19;;;;;;;3.85;2.60;;;9.50;65.80;;;;;;1903125;75;21015;-41
2021/12/01 11:23:54;;;;;;;4.62;2.92;;;9.40;66.10;;;;;;1885494;75;21091;-42
2021/12/01 11:26:28;;;;;;;10.43;3.20;;;9.40;66.80;;;;;;1872565;77;21021;-41
2021/12/01 11:29:03;;;;;;;4.23;1.90;;;9.30;67.30;;;;;;1894426;75;21043;-41
2021/12/01 11:31:41;;;;;;;4.00;2.27;;;9.20;68.10;;;;;;1903161;75;21317;-44
2021/12/01 11:34:15;;;;;;;6.45;2.12;;;9.20;70.10;;;;;;1901273;75;21614;-43
2021/12/01 11:36:47;;;;;;;7.67;4.37;;;9.10;70.90;;;;;;1902305;75;21567;-43
2021/12/01 11:39:21;;;;;;;4.80;3.20;;;9.00;71.00;;;;;;1901964;75;21512;-43
2021/12/01 11:41:51;;;;;;;5.60;2.80;;;9.00;70.80;;;;;;1898070;75;21121;-43
2021/12/01 11:44:21;;;;;;;3.95;2.87;;;9.00;71.10;;;;;;1898077;75;21023;-42
2021/12/01 11:46:52;;;;;;;4.08;2.55;;;9.00;71.20;;;;;;1897951;75;21074;-46
2021/12/01 11:49:24;;;;;;;9.53;4.08;;;9.00;71.90;;;;;;1892165;75;21025;-46
2021/12/01 11:52:03;;;;;;;7.35;4.58;;;9.00;71.70;;;;;;1887546;74;21077;-42
2021/12/01 11:54:33;;;;;;;7.00;3.37;;;9.10;72.60;;;;;;1896976;75;21092;-41
2021/12/01 11:57:07;;;;;;;7.62;4.33;;;9.20;72.50;;;;;;1899435;74;21038;-41
2021/12/01 11:59:50;;;;;;;3.67;2.67;;;9.40;72.20;;;;;;1883997;75;21061;-42
2021/12/01 12:02:26;;;;;;;19.40;9.60;;;9.40;72.40;;;;;;1898659;75;21135;-42
2021/12/01 12:04:59;;;;;;;4.35;3.25;;;9.50;72.50;;;;;;1871942;75;21183;-41
2021/12/01 12:07:34;;;;;;;5.97;3.80;;;9.60;72.10;;;;;;1866081;75;21002;-42
2021/12/01 12:10:17;;;;;;;3.87;2.60;;;9.80;72.50;;;;;;1867195;75;21068;-42
2021/12/01 12:13:00;;;;;;;3.95;2.05;;;9.90;72.50;;;;;;1865114;75;21025;-40
2021/12/01 12:15:46;;;;;;;3.67;2.58;;;9.90;71.40;;;;;;1859893;75;21036;-40
2021/12/01 12:18:14;;;;;;;;;;;10.00;71.10;;;;;;1886340;75;21042;-40
2021/12/01 12:20:52;;;;;;;4.83;2.85;;;9.90;71.80;;;;;;1897899;75;20201;-40
2021/12/01 12:23:19;;;;;;;6.90;3.33;;;9.90;71.90;;;;;;1898932;74;21109;-41
2021/12/01 12:25:54;;;;;;;3.35;2.00;;;9.90;71.90;;;;;;1899781;74;21180;-40
2021/12/01 12:28:26;;;;;;;4.35;2.80;;;9.90;72.50;;;;;;1899854;74;21014;-40
2021/12/01 12:31:01;;;;;;;4.03;3.08;;;9.80;72.90;;;;;;1899725;75;21037;-40
2021/12/01 12:33:33;;;;;;;5.17;2.90;;;9.70;74.10;;;;;;1899910;75;21041;-43
2021/12/01 12:36:08;;;;;;;3.62;2.50;;;9.70;74.20;;;;;;1877941;75;21489;-43
2021/12/01 12:38:38;;;;;;;;;;;9.60;73.90;;;;;;1870410;75;21090;-42
2021/12/01 12:41:10;;;;;;;12.65;7.40;;;9.40;74.70;;;;;;1878438;74;20132;-43
2021/12/01 12:43:42;;;;;;;8.90;4.92;;;9.30;76.70;;;;;;1872135;75;21128;-43
2021/12/01 12:46:17;;;;;;;4.72;3.22;;;9.50;78.10;;;;;;1898804;75;21082;-45
2021/12/01 12:48:52;;;;;;;11.18;6.87;;;9.70;78.30;;;;;;1885444;75;21013;-42
2021/12/01 12:51:32;;;;;;;11.43;6.05;;;9.90;78.70;;;;;;1886680;75;21119;-42
2021/12/01 12:54:07;;;;;;;6.17;2.92;;;10.00;79.50;;;;;;1886983;75;21167;-45
2021/12/01 12:56:39;;;;;;;6.28;3.15;;;10.10;79.00;;;;;;1896909;75;21011;-43
2021/12/01 12:59:29;;;;;;;15.85;6.80;;;10.10;77.10;;;;;;1882719;74;21128;-41
2021/12/01 13:02:17;;;;;;;8.15;2.50;;;10.00;77.60;;;;;;1874016;75;21089;-41
2021/12/01 13:04:52;;;;;;;4.37;3.27;;;9.90;76.50;;;;;;1871159;76;21332;-41
2021/12/01 13:07:46;;;;;;;4.58;2.92;;;9.70;76.20;;;;;;1885115;75;21025;-44
2021/12/01 13:10:31;;;;;;;39.63;11.68;;;9.50;76.30;;;;;;1904284;75;21074;-41
2021/12/01 13:13:15;;;;;;;7.37;4.42;;;9.40;77.10;;;;;;1873953;75;21047;-43
2021/12/01 13:15:44;;;;;;;8.18;5.40;;;9.50;78.70;;;;;;1903228;74;21128;-43
2021/12/01 13:18:16;;;;;;;6.67;3.85;;;9.50;77.30;;;;;;1904215;75;21857;-41